Time;durP1;ratioP1;P1;durP2;ratioP2;P2;SDS_P1;SDS_P2;PMS_P1;PMS_P2;Temp;Humidity;BMP_temperature;BMP_pressure;BME280_temperature;BME280_humidity;BME280_pressure;Samples;Min_cycle;Max_cycle;Signal;HPM_P1;HPM_P2
2021/05/30 00:00:30;;;;;;;2.20;1.63;;;8.80;99.90;;;;;;5035090;28;20117;-76
2021/05/30 00:02:56;;;;;;;2.75;1.52;;;8.70;99.90;;;;;;5038438;28;21164;-76
2021/05/30 00:05:22;;;;;;;1.63;1.52;;;8.70;99.90;;;;;;5043040;28;20069;-76
2021/05/30 00:07:47;;;;;;;4.10;1.50;;;8.80;99.90;;;;;;5045575;28;20097;-76
2021/05/30 00:10:13;;;;;;;1.50;1.20;;;8.90;99.90;;;;;;5034924;28;20596;-77
2021/05/30 00:12:39;;;;;;;1.50;1.33;;;8.60;99.90;;;;;;5048158;28;20104;-76
2021/05/30 00:15:09;;;;;;;1.60;1.20;;;8.50;99.90;;;;;;5037992;28;20097;-76
2021/05/30 00:17:35;;;;;;;2.03;1.38;;;8.60;99.90;;;;;;5041585;28;20089;-76
2021/05/30 00:20:00;;;;;;;3.03;1.63;;;8.60;99.90;;;;;;5033239;28;20082;-76
2021/05/30 00:22:26;;;;;;;2.05;1.60;;;8.70;99.90;;;;;;5031758;28;20127;-76
2021/05/30 00:24:51;;;;;;;1.80;1.40;;;8.50;99.90;;;;;;5048366;28;20112;-76
2021/05/30 00:27:17;;;;;;;2.83;1.40;;;8.70;99.90;;;;;;5031886;28;20101;-75
2021/05/30 00:29:43;;;;;;;2.33;1.20;;;8.60;99.90;;;;;;5029150;28;20762;-76
2021/05/30 00:32:08;;;;;;;2.95;1.30;;;8.60;99.90;;;;;;5027808;28;20097;-76
2021/05/30 00:34:34;;;;;;;1.33;1.23;;;8.40;99.90;;;;;;5030965;28;20153;-76
2021/05/30 00:36:59;;;;;;;3.17;2.03;;;8.30;99.90;;;;;;5034605;28;20102;-76
2021/05/30 00:39:25;;;;;;;3.40;1.70;;;8.50;99.90;;;;;;5030416;28;20074;-76
2021/05/30 00:41:50;;;;;;;1.88;1.40;;;8.50;99.90;;;;;;5037675;28;20082;-76
2021/05/30 00:44:23;;;;;;;2.30;1.60;;;8.40;99.90;;;;;;5035646;28;20156;-76
2021/05/30 00:46:50;;;;;;;2.55;1.40;;;8.20;99.90;;;;;;5034581;28;20094;-76
2021/05/30 00:49:16;;;;;;;3.13;1.60;;;8.20;99.90;;;;;;5032188;28;20164;-78
2021/05/30 00:51:42;;;;;;;1.98;1.60;;;8.20;99.90;;;;;;5035625;28;20185;-77
2021/05/30 00:54:08;;;;;;;4.05;1.58;;;8.20;99.90;;;;;;5044428;28;20100;-75
2021/05/30 00:56:34;;;;;;;1.40;1.30;;;8.20;99.90;;;;;;5031558;28;20130;-76
2021/05/30 00:59:00;;;;;;;1.45;1.30;;;8.20;99.90;;;;;;5033037;28;20089;-75
2021/05/30 01:01:25;;;;;;;2.97;1.20;;;8.20;99.90;;;;;;5031010;28;20128;-75
2021/05/30 01:03:51;;;;;;;1.90;1.60;;;8.30;99.90;;;;;;5030743;28;20050;-75
2021/05/30 01:06:16;;;;;;;1.50;1.38;;;8.20;99.90;;;;;;5030439;28;20482;-75
2021/05/30 01:08:42;;;;;;;2.63;1.52;;;8.10;99.90;;;;;;5036421;28;20070;-75
2021/05/30 01:11:14;;;;;;;2.78;1.80;;;8.10;99.90;;;;;;5044568;28;20452;-75
2021/05/30 01:13:41;;;;;;;1.50;1.40;;;8.10;99.90;;;;;;5021890;28;20577;-74
2021/05/30 01:16:07;;;;;;;1.50;1.30;;;8.00;99.90;;;;;;5029784;28;20109;-75
2021/05/30 01:18:33;;;;;;;1.85;1.38;;;8.10;99.90;;;;;;5036095;28;20116;-75
2021/05/30 01:20:59;;;;;;;1.40;1.27;;;7.90;99.90;;;;;;5048624;28;20073;-75
2021/05/30 01:23:25;;;;;;;1.52;1.40;;;7.90;99.90;;;;;;5039915;28;20437;-74
2021/05/30 01:25:50;;;;;;;1.63;1.30;;;7.90;99.90;;;;;;5035343;28;20097;-77
2021/05/30 01:28:17;;;;;;;2.53;1.40;;;7.70;99.90;;;;;;5045468;28;20195;-75
2021/05/30 01:30:44;;;;;;;1.92;1.73;;;7.80;99.90;;;;;;5050551;28;20156;-75
2021/05/30 01:33:10;;;;;;;4.32;1.70;;;7.60;99.90;;;;;;5050367;28;20120;-75
2021/05/30 01:35:36;;;;;;;2.20;1.58;;;7.60;99.90;;;;;;5044677;28;20538;-74
2021/05/30 01:38:01;;;;;;;1.40;1.30;;;7.60;99.90;;;;;;5048715;28;20367;-75
2021/05/30 01:40:27;;;;;;;3.92;1.67;;;7.70;99.90;;;;;;5046033;28;20526;-75
2021/05/30 01:42:54;;;;;;;2.35;2.03;;;7.60;99.90;;;;;;5028844;28;20600;-75
2021/05/30 01:45:21;;;;;;;2.92;1.63;;;7.60;99.90;;;;;;5034273;28;20156;-76
2021/05/30 01:47:47;;;;;;;3.80;1.58;;;7.60;99.90;;;;;;5028152;28;20447;-76
2021/05/30 01:50:16;;;;;;;2.03;1.63;;;7.70;99.90;;;;;;5029110;28;20216;-76
2021/05/30 01:52:42;;;;;;;1.45;1.27;;;7.70;99.90;;;;;;5031233;28;20070;-76
2021/05/30 01:55:17;;;;;;;3.40;2.22;;;7.70;99.90;;;;;;5034468;28;20093;-76
2021/05/30 01:57:45;;;;;;;2.55;1.85;;;7.70;99.90;;;;;;5032076;28;20096;-76
2021/05/30 02:00:12;;;;;;;1.95;1.55;;;7.70;99.90;;;;;;5035281;28;20112;-76
2021/05/30 02:02:38;;;;;;;1.80;1.55;;;7.80;99.90;;;;;;5039772;28;20188;-76
2021/05/30 02:05:04;;;;;;;2.03;1.70;;;7.70;99.90;;;;;;5033309;28;20534;-76
2021/05/30 02:07:32;;;;;;;3.92;1.70;;;7.60;99.90;;;;;;5034277;28;20121;-76
2021/05/30 02:10:00;;;;;;;4.03;1.80;;;7.70;99.90;;;;;;5015961;28;20082;-76
2021/05/30 02:12:27;;;;;;;1.98;1.80;;;7.60;99.90;;;;;;5046599;28;20440;-76
2021/05/30 02:14:57;;;;;;;1.60;1.40;;;7.50;99.90;;;;;;5026955;28;20106;-76
2021/05/30 02:17:24;;;;;;;1.83;1.25;;;7.50;99.90;;;;;;5027030;28;20092;-76
2021/05/30 02:19:50;;;;;;;2.70;1.52;;;7.60;99.90;;;;;;5042716;28;20089;-75
2021/05/30 02:22:16;;;;;;;3.90;1.52;;;7.50;99.90;;;;;;5034420;28;20437;-76
2021/05/30 02:24:44;;;;;;;4.60;1.67;;;7.30;99.90;;;;;;5039305;28;20085;-76
2021/05/30 02:27:11;;;;;;;3.33;1.63;;;7.20;99.90;;;;;;5031658;28;20101;-76
2021/05/30 02:29:40;;;;;;;1.95;1.85;;;7.20;99.90;;;;;;5035644;28;20085;-76
2021/05/30 02:32:08;;;;;;;2.22;2.03;;;7.30;99.90;;;;;;5028131;28;20100;-75
2021/05/30 02:34:34;;;;;;;2.53;2.33;;;7.40;99.90;;;;;;5037637;28;20105;-75
2021/05/30 02:37:04;;;;;;;3.78;2.17;;;7.30;99.90;;;;;;5012229;28;20548;-76
2021/05/30 02:39:30;;;;;;;1.98;1.70;;;7.20;99.90;;;;;;5032474;28;20078;-76
2021/05/30 02:41:55;;;;;;;2.38;2.00;;;7.30;99.90;;;;;;5038972;28;20078;-76
2021/05/30 02:44:21;;;;;;;2.85;2.03;;;7.20;99.90;;;;;;5032562;28;20155;-76
2021/05/30 02:46:47;;;;;;;2.97;1.88;;;7.20;99.90;;;;;;5035648;28;20100;-76
2021/05/30 02:49:12;;;;;;;3.17;1.98;;;7.00;99.90;;;;;;5037187;28;20117;-76
2021/05/30 02:51:38;;;;;;;1.95;1.55;;;7.10;99.90;;;;;;5032490;28;20204;-76
2021/05/30 02:54:04;;;;;;;4.25;1.38;;;7.00;99.90;;;;;;5034086;28;20094;-76
2021/05/30 02:56:29;;;;;;;2.78;1.73;;;7.00;99.90;;;;;;5031147;28;20097;-76
2021/05/30 02:58:55;;;;;;;2.28;1.90;;;7.00;99.90;;;;;;5031793;28;20210;-76
2021/05/30 03:01:21;;;;;;;4.75;1.92;;;7.10;99.90;;;;;;5031082;28;20534;-76
2021/05/30 03:03:47;;;;;;;2.42;1.63;;;7.00;99.90;;;;;;5037227;28;20181;-76
2021/05/30 03:06:13;;;;;;;1.80;1.70;;;7.00;99.90;;;;;;5041203;28;20172;-76
2021/05/30 03:08:40;;;;;;;3.42;1.77;;;7.00;99.90;;;;;;5032052;28;20634;-76
2021/05/30 03:11:06;;;;;;;2.65;1.98;;;7.00;99.90;;;;;;5040318;28;20090;-76
2021/05/30 03:13:32;;;;;;;1.90;1.55;;;6.90;99.90;;;;;;5030866;28;20461;-76
2021/05/30 03:15:58;;;;;;;2.20;1.60;;;6.90;99.90;;;;;;5030364;28;20102;-76
2021/05/30 03:18:23;;;;;;;2.35;1.75;;;6.90;99.90;;;;;;5031772;28;20081;-76
2021/05/30 03:20:49;;;;;;;2.15;1.85;;;6.90;99.90;;;;;;5032688;28;20084;-76
2021/05/30 03:23:14;;;;;;;2.20;1.90;;;6.90;99.90;;;;;;5035646;28;20132;-76
2021/05/30 03:25:40;;;;;;;2.75;2.13;;;6.80;99.90;;;;;;5044241;28;20164;-76
2021/05/30 03:28:05;;;;;;;2.80;1.90;;;6.70;99.90;;;;;;5034952;28;20543;-76
2021/05/30 03:30:31;;;;;;;2.08;1.73;;;6.70;99.90;;;;;;5039528;28;20168;-76
2021/05/30 03:32:57;;;;;;;2.67;2.13;;;6.80;99.90;;;;;;5030938;28;20127;-76
2021/05/30 03:35:23;;;;;;;2.10;1.90;;;6.90;99.90;;;;;;5031401;28;20586;-75
2021/05/30 03:37:49;;;;;;;1.92;1.73;;;6.90;99.90;;;;;;5030508;28;20121;-76
2021/05/30 03:40:34;;;;;;;2.00;1.63;;;6.90;99.90;;;;;;5040701;28;20553;-76
2021/05/30 03:42:59;;;;;;;;;;;6.70;99.90;;;;;;5031861;28;20124;-75
2021/05/30 03:45:25;;;;;;;2.42;2.00;;;6.50;99.90;;;;;;5045799;28;20433;-75
2021/05/30 03:47:51;;;;;;;2.45;2.10;;;6.70;99.90;;;;;;5030528;28;20105;-75
2021/05/30 03:50:18;;;;;;;2.50;1.73;;;6.80;99.90;;;;;;5030962;28;20530;-76
2021/05/30 03:52:44;;;;;;;2.35;1.90;;;6.90;99.90;;;;;;5035872;28;20534;-75
2021/05/30 03:55:11;;;;;;;3.40;1.75;;;6.80;99.90;;;;;;5048128;28;20461;-77
2021/05/30 03:57:37;;;;;;;2.05;1.38;;;6.90;99.90;;;;;;5037287;28;20100;-75
2021/05/30 04:00:10;;;;;;;1.95;1.70;;;7.00;99.90;;;;;;5044206;28;20074;-77
2021/05/30 04:02:35;;;;;;;3.55;1.80;;;7.00;99.90;;;;;;5029808;28;21088;-77
2021/05/30 04:05:01;;;;;;;5.15;1.95;;;6.90;99.90;;;;;;5031414;28;20127;-77
2021/05/30 04:07:27;;;;;;;2.15;1.60;;;7.00;99.90;;;;;;5036749;28;20104;-76
2021/05/30 04:09:53;;;;;;;2.15;1.65;;;7.00;99.90;;;;;;5047317;28;20561;-75
2021/05/30 04:12:18;;;;;;;3.80;2.10;;;7.10;99.90;;;;;;5046315;28;20112;-76
2021/05/30 04:14:44;;;;;;;2.90;1.73;;;7.20;99.90;;;;;;5042528;28;20104;-77
2021/05/30 04:17:09;;;;;;;1.90;1.60;;;7.30;99.90;;;;;;5042250;28;20176;-76
2021/05/30 04:19:35;;;;;;;2.00;1.65;;;7.40;99.90;;;;;;5048874;28;20077;-76
2021/05/30 04:22:00;;;;;;;2.42;1.50;;;7.50;99.90;;;;;;5040534;28;20180;-75
2021/05/30 04:24:26;;;;;;;1.73;1.50;;;7.50;99.90;;;;;;5041086;28;20081;-76
2021/05/30 04:26:52;;;;;;;3.08;1.90;;;7.50;99.90;;;;;;5044439;28;20107;-75
2021/05/30 04:29:17;;;;;;;2.65;1.95;;;7.30;99.90;;;;;;5041445;28;20086;-76
2021/05/30 04:31:43;;;;;;;2.40;1.98;;;7.20;99.90;;;;;;5034003;28;20090;-75
2021/05/30 04:34:09;;;;;;;2.55;2.10;;;7.40;99.90;;;;;;5034478;28;20589;-76
2021/05/30 04:36:34;;;;;;;2.38;1.98;;;7.40;99.90;;;;;;5030973;28;20602;-76
2021/05/30 04:39:00;;;;;;;2.08;1.85;;;7.60;99.90;;;;;;5037676;28;20496;-75
2021/05/30 04:41:25;;;;;;;2.22;2.00;;;7.60;99.90;;;;;;5032894;28;20230;-75
2021/05/30 04:43:51;;;;;;;2.97;2.08;;;7.50;99.90;;;;;;5043477;28;20086;-75
2021/05/30 04:46:16;;;;;;;3.33;2.28;;;7.70;99.90;;;;;;5038210;28;20581;-76
2021/05/30 04:48:42;;;;;;;3.33;2.17;;;7.80;99.90;;;;;;5044378;28;20092;-77
2021/05/30 04:51:14;;;;;;;2.60;2.25;;;7.90;99.90;;;;;;5033610;28;20066;-75
2021/05/30 04:53:41;;;;;;;2.42;2.22;;;8.10;99.90;;;;;;5041657;28;20089;-77
2021/05/30 04:56:08;;;;;;;2.85;2.08;;;8.10;99.90;;;;;;5034563;28;20562;-76
2021/05/30 04:58:35;;;;;;;2.47;2.28;;;8.20;99.90;;;;;;5031429;28;20077;-77
2021/05/30 05:01:05;;;;;;;2.67;2.30;;;8.20;99.90;;;;;;5039931;28;20077;-76
2021/05/30 05:03:35;;;;;;;3.70;2.67;;;8.30;99.90;;;;;;5033110;28;20179;-75
2021/05/30 05:06:00;;;;;;;4.10;3.20;;;8.40;99.90;;;;;;5030196;28;20229;-77
2021/05/30 05:08:26;;;;;;;3.15;2.75;;;8.40;99.90;;;;;;5046389;28;20164;-75
2021/05/30 05:10:52;;;;;;;4.75;3.33;;;8.50;99.90;;;;;;5035728;28;20085;-75
2021/05/30 05:13:19;;;;;;;3.03;2.70;;;8.60;99.90;;;;;;5030033;28;20097;-77
2021/05/30 05:15:50;;;;;;;3.88;3.28;;;8.60;99.90;;;;;;5032683;28;20124;-76
2021/05/30 05:18:18;;;;;;;3.20;2.72;;;8.70;99.90;;;;;;5028811;28;20452;-75
2021/05/30 05:20:45;;;;;;;3.03;2.63;;;8.80;99.90;;;;;;5038170;28;20077;-76
2021/05/30 05:23:12;;;;;;;5.38;3.58;;;8.90;99.90;;;;;;5035930;28;20144;-77
2021/05/30 05:25:38;;;;;;;4.63;3.67;;;9.00;99.90;;;;;;5030252;28;20077;-77
2021/05/30 05:28:04;;;;;;;3.50;2.92;;;9.10;99.90;;;;;;5044625;28;20085;-76
2021/05/30 05:30:30;;;;;;;3.17;2.88;;;9.20;99.90;;;;;;5043623;28;20534;-75
2021/05/30 05:32:56;;;;;;;4.45;2.90;;;9.30;99.90;;;;;;5031132;28;20148;-75
2021/05/30 05:35:22;;;;;;;6.95;3.70;;;9.40;99.90;;;;;;5014715;28;20089;-74
2021/05/30 05:37:52;;;;;;;3.65;2.97;;;9.50;99.90;;;;;;5032218;28;20523;-77
2021/05/30 05:40:17;;;;;;;2.83;2.60;;;9.60;99.90;;;;;;5029513;28;20164;-77
2021/05/30 05:42:43;;;;;;;3.53;2.90;;;9.80;99.90;;;;;;5031853;28;20741;-77
2021/05/30 05:45:09;;;;;;;3.35;3.03;;;9.90;99.90;;;;;;5028838;28;20492;-77
2021/05/30 05:47:34;;;;;;;5.20;3.30;;;10.00;99.90;;;;;;5030201;28;20169;-77
2021/05/30 05:50:00;;;;;;;4.25;3.85;;;10.10;99.90;;;;;;5033697;28;20169;-76
2021/05/30 05:52:26;;;;;;;5.40;3.10;;;10.30;99.90;;;;;;5037505;28;20077;-75
2021/05/30 05:54:51;;;;;;;4.10;3.35;;;10.30;99.90;;;;;;5042382;28;20509;-77
2021/05/30 05:57:18;;;;;;;4.55;3.75;;;10.40;99.90;;;;;;5036039;28;20090;-77
2021/05/30 05:59:43;;;;;;;6.70;4.25;;;10.60;99.90;;;;;;5029866;28;20557;-77
2021/05/30 06:02:09;;;;;;;11.63;4.50;;;10.60;99.90;;;;;;5036203;28;20077;-75
2021/05/30 06:04:34;;;;;;;5.18;4.35;;;10.70;99.90;;;;;;5038546;28;20085;-76
2021/05/30 06:07:00;;;;;;;5.55;4.07;;;10.80;99.90;;;;;;5030016;28;20110;-77
2021/05/30 06:09:26;;;;;;;5.40;3.72;;;10.90;99.90;;;;;;5037668;28;20135;-76
2021/05/30 06:11:52;;;;;;;6.35;3.85;;;11.00;99.90;;;;;;5028559;28;20096;-77
2021/05/30 06:14:18;;;;;;;5.25;3.75;;;11.10;99.90;;;;;;5034183;28;20123;-75
2021/05/30 06:16:43;;;;;;;4.80;3.58;;;11.10;99.90;;;;;;5040575;28;20097;-75
2021/05/30 06:19:09;;;;;;;6.10;3.55;;;11.20;99.90;;;;;;5039198;28;20228;-77
2021/05/30 06:21:35;;;;;;;5.18;4.03;;;11.30;99.90;;;;;;5033045;28;20070;-77
2021/05/30 06:24:00;;;;;;;5.63;4.45;;;11.40;99.90;;;;;;5046345;28;20093;-76
2021/05/30 06:26:26;;;;;;;5.50;4.03;;;11.40;99.90;;;;;;5033609;28;20106;-76
2021/05/30 06:28:52;;;;;;;7.53;3.83;;;11.40;99.90;;;;;;5035308;28;20587;-77
2021/05/30 06:31:18;;;;;;;6.82;4.60;;;11.60;99.90;;;;;;5047649;28;20088;-77
2021/05/30 06:33:43;;;;;;;7.05;4.45;;;11.60;99.90;;;;;;5039806;28;20171;-77
2021/05/30 06:36:09;;;;;;;8.05;4.03;;;11.60;99.90;;;;;;5030367;28;20230;-77
2021/05/30 06:38:34;;;;;;;6.25;4.30;;;11.60;99.90;;;;;;5046267;28;20069;-76
2021/05/30 06:41:00;;;;;;;6.55;4.30;;;11.70;99.90;;;;;;5043540;28;20152;-77
2021/05/30 06:43:26;;;;;;;7.55;4.65;;;11.80;99.90;;;;;;5049677;28;20156;-76
2021/05/30 06:45:51;;;;;;;5.57;3.97;;;11.80;99.90;;;;;;5049530;28;20096;-76
2021/05/30 06:48:19;;;;;;;7.47;3.97;;;11.70;99.90;;;;;;5049300;28;20073;-76
2021/05/30 06:51:11;;;;;;;5.97;4.18;;;11.70;99.90;;;;;;5037439;28;20620;-77
2021/05/30 06:53:31;;;;;;;4.82;4.32;;;11.60;99.90;;;;;;5032801;28;20109;-77
2021/05/30 06:55:58;;;;;;;8.57;4.50;;;11.70;99.90;;;;;;5044171;28;20077;-76
2021/05/30 06:58:24;;;;;;;6.20;4.88;;;11.70;99.90;;;;;;5022876;28;20554;-77
2021/05/30 07:00:49;;;;;;;5.40;4.30;;;11.70;99.90;;;;;;5046741;28;20524;-76
2021/05/30 07:03:15;;;;;;;7.97;4.68;;;11.70;99.90;;;;;;5032547;28;20074;-75
2021/05/30 07:05:41;;;;;;;7.30;5.03;;;11.80;99.90;;;;;;5038423;28;20082;-75
2021/05/30 07:08:06;;;;;;;5.45;4.80;;;11.80;99.90;;;;;;5031407;28;20062;-75
2021/05/30 07:10:32;;;;;;;6.00;4.57;;;11.90;99.90;;;;;;5027736;28;20073;-75
2021/05/30 07:12:57;;;;;;;6.43;4.53;;;11.90;99.90;;;;;;5030219;28;20440;-75
2021/05/30 07:15:23;;;;;;;6.57;4.55;;;11.90;99.90;;;;;;5043431;28;20093;-75
2021/05/30 07:17:49;;;;;;;6.18;4.35;;;11.90;99.90;;;;;;5043077;28;20096;-75
2021/05/30 07:20:14;;;;;;;5.45;4.63;;;11.90;99.90;;;;;;5030158;28;20173;-75
2021/05/30 07:22:40;;;;;;;7.85;4.32;;;12.00;99.90;;;;;;5040447;28;20170;-75
2021/05/30 07:25:06;;;;;;;9.43;5.18;;;12.10;99.90;;;;;;5042756;28;20086;-75
2021/05/30 07:27:32;;;;;;;9.80;4.95;;;12.20;99.90;;;;;;5036479;28;20104;-75
2021/05/30 07:29:58;;;;;;;9.55;5.07;;;12.20;99.90;;;;;;5045674;28;20081;-77
2021/05/30 07:32:23;;;;;;;7.85;4.70;;;12.30;99.90;;;;;;5046374;28;20085;-80
2021/05/30 07:34:49;;;;;;;6.35;4.15;;;12.40;99.90;;;;;;5047291;28;20090;-76
2021/05/30 07:37:15;;;;;;;4.95;3.97;;;12.40;99.90;;;;;;5049503;28;20100;-75
2021/05/30 07:39:40;;;;;;;6.30;4.72;;;12.40;99.90;;;;;;5039123;28;20074;-75
2021/05/30 07:42:06;;;;;;;6.60;4.78;;;12.60;99.90;;;;;;5051597;28;20552;-76
2021/05/30 07:44:32;;;;;;;5.05;4.20;;;12.70;99.90;;;;;;5034236;28;20113;-75
2021/05/30 07:46:57;;;;;;;6.00;4.47;;;12.80;99.90;;;;;;5032876;28;20156;-76
2021/05/30 07:49:23;;;;;;;7.20;4.03;;;13.10;99.90;;;;;;5034645;28;20510;-77
2021/05/30 07:51:49;;;;;;;6.32;4.18;;;12.90;99.90;;;;;;5043597;28;20082;-76
2021/05/30 07:54:17;;;;;;;3.35;2.88;;;12.90;99.90;;;;;;5013563;28;20114;-76
2021/05/30 07:56:43;;;;;;;4.68;2.92;;;12.90;99.90;;;;;;5033583;28;20082;-77
2021/05/30 07:59:09;;;;;;;3.83;3.30;;;12.80;99.90;;;;;;5043990;28;20826;-79
2021/05/30 08:01:35;;;;;;;4.28;2.33;;;13.30;99.90;;;;;;5053348;28;20066;-77
2021/05/30 08:04:01;;;;;;;3.08;2.30;;;13.40;99.90;;;;;;5047662;28;20092;-77
2021/05/30 08:06:30;;;;;;;3.63;2.67;;;13.40;99.90;;;;;;5047171;28;20090;-77
2021/05/30 08:08:57;;;;;;;4.70;2.25;;;13.60;99.90;;;;;;5043590;28;20076;-78
2021/05/30 08:11:23;;;;;;;3.13;2.20;;;13.40;99.90;;;;;;5028143;28;20165;-77
2021/05/30 08:13:48;;;;;;;3.15;1.70;;;13.40;99.80;;;;;;5041238;28;20172;-77
2021/05/30 08:16:14;;;;;;;3.40;1.88;;;13.80;98.50;;;;;;5041728;28;20090;-77
2021/05/30 08:18:40;;;;;;;3.42;2.30;;;13.70;98.70;;;;;;5018272;28;20070;-77
2021/05/30 08:21:05;;;;;;;3.90;2.75;;;13.70;96.90;;;;;;5044845;28;20074;-77
2021/05/30 08:23:31;;;;;;;5.05;2.25;;;13.70;98.10;;;;;;5045763;28;20082;-76
2021/05/30 08:25:57;;;;;;;3.53;2.20;;;13.60;98.80;;;;;;5045597;28;20116;-80
2021/05/30 08:28:22;;;;;;;4.82;2.22;;;13.60;99.00;;;;;;5047429;28;20258;-79
2021/05/30 08:30:48;;;;;;;3.33;2.40;;;13.30;98.00;;;;;;5043104;28;20078;-77
2021/05/30 08:33:13;;;;;;;4.82;2.78;;;13.10;98.20;;;;;;5030089;28;20124;-77
2021/05/30 08:35:39;;;;;;;4.40;3.33;;;13.00;99.90;;;;;;5045781;28;20569;-77
2021/05/30 08:38:05;;;;;;;4.93;3.00;;;13.20;99.90;;;;;;5053061;28;20453;-77
2021/05/30 08:40:31;;;;;;;4.10;3.10;;;13.40;99.90;;;;;;5039308;28;20080;-77
2021/05/30 08:42:56;;;;;;;3.42;2.28;;;13.70;98.60;;;;;;5048334;28;20522;-77
2021/05/30 08:45:23;;;;;;;4.82;2.47;;;13.60;99.10;;;;;;5047819;28;20115;-77
2021/05/30 08:47:49;;;;;;;3.38;2.40;;;13.70;95.00;;;;;;5032758;28;20176;-78
2021/05/30 08:50:15;;;;;;;2.90;2.13;;;14.00;94.80;;;;;;5030265;28;20166;-76
2021/05/30 08:52:41;;;;;;;3.85;2.25;;;13.90;94.10;;;;;;5032491;28;20074;-77
2021/05/30 08:55:08;;;;;;;5.22;2.20;;;13.90;93.30;;;;;;5020634;28;20101;-78
2021/05/30 08:57:33;;;;;;;3.47;1.67;;;13.80;94.10;;;;;;5036744;28;20094;-75
2021/05/30 08:59:59;;;;;;;2.85;2.03;;;13.90;85.80;;;;;;5020856;28;20073;-78
2021/05/30 09:02:25;;;;;;;4.68;2.10;;;13.80;83.90;;;;;;5032313;28;20070;-76
2021/05/30 09:04:56;;;;;;;3.95;2.33;;;13.80;85.50;;;;;;5037211;28;20077;-76
2021/05/30 09:07:45;;;;;;;4.40;2.70;;;14.00;90.80;;;;;;5037253;28;20182;-76
2021/05/30 09:10:16;;;;;;;3.88;2.58;;;13.90;94.30;;;;;;5024779;28;20069;-76
2021/05/30 09:12:42;;;;;;;4.18;2.53;;;14.00;92.80;;;;;;5031578;28;20538;-83
2021/05/30 09:15:26;;;;;;;3.72;1.95;;;14.20;93.30;;;;;;5040056;28;20097;-80
2021/05/30 09:18:12;;;;;;;2.65;2.22;;;14.10;92.20;;;;;;5040163;28;20128;-76
2021/05/30 09:20:53;;;;;;;;;;;13.90;91.20;;;;;;5038850;28;20102;-77
2021/05/30 09:23:40;;;;;;;3.40;2.20;;;14.10;87.50;;;;;;5033446;28;19958;-76
2021/05/30 09:26:24;;;;;;;2.60;2.10;;;14.20;90.40;;;;;;5042737;28;20472;-77
2021/05/30 09:29:10;;;;;;;4.00;2.30;;;14.00;90.60;;;;;;5048948;28;20079;-77
2021/05/30 09:31:59;;;;;;;6.22;2.03;;;14.20;86.40;;;;;;5031265;28;20085;-76
2021/05/30 09:34:29;;;;;;;3.70;2.42;;;14.30;89.30;;;;;;5019691;28;20561;-77
2021/05/30 09:36:56;;;;;;;4.03;2.22;;;14.40;90.90;;;;;;5018820;28;20092;-75
2021/05/30 09:39:37;;;;;;;4.20;2.35;;;14.30;87.40;;;;;;5045832;28;20500;-75
2021/05/30 09:42:26;;;;;;;4.05;2.42;;;14.30;83.90;;;;;;5035261;28;20147;-76
2021/05/30 09:44:56;;;;;;;2.63;2.42;;;14.50;95.90;;;;;;5014471;28;20074;-74
2021/05/30 09:47:38;;;;;;;4.00;2.38;;;14.40;80.60;;;;;;5032323;28;20152;-76
2021/05/30 09:50:06;;;;;;;3.65;2.28;;;14.60;93.20;;;;;;5038633;28;20070;-76
2021/05/30 09:52:40;;;;;;;2.78;2.10;;;14.70;90.00;;;;;;5032548;28;20078;-77
2021/05/30 09:55:12;;;;;;;3.47;2.20;;;14.80;84.50;;;;;;5035562;28;20473;-76
2021/05/30 09:57:38;;;;;;;3.55;2.58;;;14.50;77.40;;;;;;5036518;28;20340;-83
2021/05/30 10:00:05;;;;;;;3.13;2.30;;;14.30;75.40;;;;;;5028823;28;20088;-78
2021/05/30 10:02:32;;;;;;;4.53;2.22;;;14.50;79.30;;;;;;5043504;28;20070;-78
2021/05/30 10:04:59;;;;;;;3.58;2.10;;;14.40;78.30;;;;;;5031324;28;20085;-78
2021/05/30 10:07:26;;;;;;;5.30;3.25;;;14.50;82.30;;;;;;5042070;28;20112;-79
2021/05/30 10:09:52;;;;;;;5.40;2.72;;;14.70;82.40;;;;;;5031087;28;20082;-79
2021/05/30 10:12:19;;;;;;;5.45;2.85;;;14.60;84.70;;;;;;5036359;28;20510;-79
2021/05/30 10:14:44;;;;;;;3.75;2.38;;;14.60;85.10;;;;;;5031993;28;20585;-77
2021/05/30 10:17:11;;;;;;;4.93;2.70;;;14.50;87.40;;;;;;5030982;28;20096;-77
2021/05/30 10:19:44;;;;;;;4.15;2.72;;;14.50;88.90;;;;;;5029192;28;20077;-80
2021/05/30 10:22:11;;;;;;;4.07;3.17;;;14.80;89.70;;;;;;5043761;28;20093;-80
2021/05/30 10:24:43;;;;;;;5.18;2.38;;;14.90;88.10;;;;;;5032418;28;20151;-79
2021/05/30 10:27:16;;;;;;;5.10;2.50;;;14.90;89.70;;;;;;5033225;28;20585;-81
2021/05/30 10:30:00;;;;;;;3.95;2.60;;;14.80;89.90;;;;;;5039908;28;20073;-78
2021/05/30 10:32:26;;;;;;;4.93;2.67;;;14.50;88.40;;;;;;5035820;28;20077;-78
2021/05/30 10:35:17;;;;;;;4.63;2.38;;;14.50;87.80;;;;;;5034983;28;20101;-79
2021/05/30 10:37:49;;;;;;;3.22;2.10;;;14.60;86.90;;;;;;5015561;28;20086;-79
2021/05/30 10:40:23;;;;;;;4.38;2.50;;;14.70;92.30;;;;;;5045996;28;20078;-78
2021/05/30 10:43:08;;;;;;;;;;;15.10;93.00;;;;;;5039354;28;20095;-76
2021/05/30 10:45:42;;;;;;;4.13;2.70;;;14.80;90.30;;;;;;5042411;28;19957;-75
2021/05/30 10:48:09;;;;;;;3.17;2.42;;;14.80;90.10;;;;;;5044778;28;20112;-75
2021/05/30 10:51:29;;;;;;;3.00;2.25;;;14.90;90.90;;;;;;5027433;28;20074;-75
2021/05/30 10:53:41;;;;;;;;;;;14.90;88.60;;;;;;5036070;28;20749;-75
2021/05/30 10:56:31;;;;;;;3.80;2.70;;;14.80;90.40;;;;;;5027716;28;20442;-75
2021/05/30 10:59:06;;;;;;;4.20;2.67;;;14.90;93.10;;;;;;5036484;28;20135;-75
2021/05/30 11:01:44;;;;;;;5.05;2.50;;;15.10;93.10;;;;;;5017715;28;20070;-73
2021/05/30 11:07:01;;;;;;;4.03;2.63;;;15.00;89.80;;;;;;5035047;28;20097;-78
2021/05/30 11:09:57;;;;;;;3.92;2.85;;;15.00;87.90;;;;;;5044051;28;20073;-75
2021/05/30 11:12:34;;;;;;;3.20;2.28;;;15.40;97.30;;;;;;5033789;28;20115;-76
2021/05/30 11:15:12;;;;;;;3.60;2.13;;;15.20;91.90;;;;;;5031716;28;20541;-75
2021/05/30 11:17:43;;;;;;;4.22;2.60;;;15.20;83.70;;;;;;5039506;28;20726;-74
2021/05/30 11:20:20;;;;;;;4.22;2.45;;;15.10;87.50;;;;;;5017841;28;20078;-78
2021/05/30 11:22:52;;;;;;;3.60;2.08;;;15.00;87.00;;;;;;5026065;28;20533;-79
2021/05/30 11:25:22;;;;;;;4.95;2.22;;;15.10;91.60;;;;;;5047221;28;20088;-79
2021/05/30 11:27:56;;;;;;;7.95;3.10;;;15.30;91.50;;;;;;5043173;28;20105;-76
2021/05/30 11:30:43;;;;;;;5.65;3.70;;;15.40;91.70;;;;;;5043951;28;20091;-77
2021/05/30 11:33:21;;;;;;;3.88;3.03;;;15.20;90.20;;;;;;5019723;28;20137;-74
2021/05/30 11:35:56;;;;;;;4.57;2.42;;;15.40;92.50;;;;;;5045266;28;20192;-76
2021/05/30 11:38:41;;;;;;;;;;;15.60;93.10;;;;;;5047529;28;20127;-75
2021/05/30 11:41:37;;;;;;;4.20;2.80;;;15.40;89.30;;;;;;5039920;28;19961;-76
2021/05/30 11:44:09;;;;;;;3.70;2.75;;;15.30;89.00;;;;;;5029515;28;20086;-75
2021/05/30 11:46:59;;;;;;;3.33;2.42;;;15.30;88.90;;;;;;5042733;28;20573;-75
2021/05/30 11:49:29;;;;;;;3.15;2.55;;;15.20;88.60;;;;;;5038723;28;20074;-76
2021/05/30 11:52:06;;;;;;;4.10;2.80;;;15.40;92.00;;;;;;5039251;28;20118;-75
2021/05/30 11:54:42;;;;;;;3.65;2.30;;;15.00;89.60;;;;;;5013592;28;20085;-75
2021/05/30 11:57:10;;;;;;;5.10;3.03;;;15.30;87.90;;;;;;5038099;28;20081;-75
2021/05/30 11:59:40;;;;;;;3.38;2.47;;;15.30;84.00;;;;;;5041679;28;20073;-77
2021/05/30 12:02:07;;;;;;;2.60;2.13;;;15.30;90.70;;;;;;5032372;28;20074;-76
2021/05/30 12:04:40;;;;;;;3.80;2.38;;;15.30;88.70;;;;;;5044377;28;20085;-77
2021/05/30 12:07:11;;;;;;;4.13;2.33;;;15.50;85.60;;;;;;5036704;28;20082;-77
2021/05/30 12:09:44;;;;;;;4.05;2.58;;;15.40;83.60;;;;;;5044356;28;20077;-78
2021/05/30 12:12:30;;;;;;;4.05;2.80;;;15.30;81.60;;;;;;5046958;28;20188;-77
2021/05/30 12:15:06;;;;;;;6.82;3.28;;;15.30;82.50;;;;;;5034324;28;20160;-77
2021/05/30 12:17:32;;;;;;;4.18;2.63;;;15.50;90.40;;;;;;5020296;28;20477;-77
2021/05/30 12:19:57;;;;;;;4.22;2.47;;;15.50;85.10;;;;;;5030396;28;20085;-76
2021/05/30 12:22:26;;;;;;;3.70;2.30;;;15.60;88.10;;;;;;5035245;28;20074;-76
2021/05/30 12:24:52;;;;;;;4.60;2.88;;;15.60;82.80;;;;;;5024479;28;20089;-75
2021/05/30 12:27:19;;;;;;;5.60;2.83;;;15.20;82.50;;;;;;5042059;28;20177;-76
2021/05/30 12:29:49;;;;;;;4.38;2.45;;;15.20;84.40;;;;;;5043008;28;20077;-76
2021/05/30 12:32:19;;;;;;;3.90;2.85;;;15.30;83.80;;;;;;5041872;28;20077;-82
2021/05/30 12:34:45;;;;;;;5.20;3.25;;;15.60;82.40;;;;;;5035730;28;20086;-77
2021/05/30 12:37:12;;;;;;;3.17;2.53;;;15.40;82.20;;;;;;5036896;28;20093;-76
2021/05/30 12:39:37;;;;;;;6.20;2.63;;;15.60;84.20;;;;;;5040422;28;20099;-77
2021/05/30 12:42:09;;;;;;;3.83;2.35;;;15.70;80.10;;;;;;5041230;28;20084;-76
2021/05/30 12:44:36;;;;;;;4.43;2.78;;;15.70;77.50;;;;;;5032972;28;20140;-76
2021/05/30 12:47:09;;;;;;;4.22;2.17;;;15.70;81.30;;;;;;5039565;28;20597;-76
2021/05/30 12:49:35;;;;;;;2.50;2.25;;;15.60;75.00;;;;;;5028415;28;20512;-76
2021/05/30 12:52:06;;;;;;;3.08;1.92;;;15.70;76.70;;;;;;5019552;28;20124;-77
2021/05/30 12:54:38;;;;;;;3.70;2.30;;;15.70;75.50;;;;;;5034841;28;20094;-77
2021/05/30 12:57:05;;;;;;;4.97;2.10;;;15.80;71.50;;;;;;5030421;28;20094;-76
2021/05/30 12:59:33;;;;;;;2.85;2.10;;;15.80;74.00;;;;;;5035657;28;20074;-76
2021/05/30 13:01:59;;;;;;;3.03;2.17;;;15.60;70.90;;;;;;5034187;28;20081;-76